Malmedy, Belgium
Current Conditions -  °F | °C
As of 10:39 PM on Thursday 27 Nov 2014 (Local Time) from EBLB Reporting Station
Broken Clouds Broken Clouds  
Wind Chill: 38°   Ceiling: 400
Heat Index: 43°   Visibility: 1.1mi
Dew Point: 43°   Wind: 8mph
Humidity: 100%   Direction: 180°S
Pressure: 29.71"   Gusts: NA
Location:  50.43°N, 6.03°E
Report Text: EBLB 272139Z AUTO 18007KT 1900 SCT002/// BKN004/// 06/06 Q1006 AMB
Loading
Personal Weather Stations






























Interactive Weather Map New forecast layout! Learn more

10-Day Weather Forecast

Advertisements
Track Severe Weather on mobile